Time;durP1;ratioP1;P1;durP2;ratioP2;P2;SDS_P1;SDS_P2;PMS_P1;PMS_P2;Temp;Humidity;BMP_temperature;BMP_pressure;BME280_temperature;BME280_humidity;BME280_pressure;Samples;Min_cycle;Max_cycle;Signal;HPM_P1;HPM_P2
2021/11/30 00:01:24;;;;;;;41.13;20.13;;;77.40;2227.20;;;;;;5040281;28;20399;-59
2021/11/30 00:03:50;;;;;;;23.25;13.10;;;77.50;2227.20;;;;;;5042278;28;20134;-67
2021/11/30 00:06:16;;;;;;;26.00;13.55;;;77.50;2227.20;;;;;;5040108;28;20025;-63
2021/11/30 00:08:42;;;;;;;27.02;14.27;;;77.60;2227.20;;;;;;5041068;28;20505;-63
2021/11/30 00:11:10;;;;;;;54.50;27.02;;;77.60;2227.20;;;;;;5041968;28;20100;-64
2021/11/30 00:13:38;;;;;;;26.67;15.00;;;77.50;2227.20;;;;;;5039998;28;20018;-59
2021/11/30 00:16:05;;;;;;;84.15;40.60;;;77.40;2227.20;;;;;;5040332;28;20040;-59
2021/11/30 00:18:33;;;;;;;44.53;22.00;;;77.50;2227.20;;;;;;5041588;28;20032;-62
2021/11/30 00:21:05;;;;;;;26.25;11.60;;;77.40;2227.20;;;;;;5039944;28;20100;-63
2021/11/30 00:23:32;;;;;;;26.23;14.60;;;77.40;2227.20;;;;;;5037275;28;20076;-61
2021/11/30 00:25:58;;;;;;;20.15;11.82;;;77.30;2227.20;;;;;;5032195;28;20030;-61
2021/11/30 00:28:24;;;;;;;25.90;15.98;;;77.40;2227.20;;;;;;5032133;28;20029;-63
2021/11/30 00:30:49;;;;;;;27.88;14.63;;;77.30;2227.20;;;;;;5032088;28;20369;-60
2021/11/30 00:33:15;;;;;;;27.27;16.35;;;77.20;2227.20;;;;;;5031830;28;20041;-59
2021/11/30 00:35:42;;;;;;;23.30;13.63;;;77.40;2227.20;;;;;;5031750;28;20021;-59
2021/11/30 00:38:12;;;;;;;25.17;13.40;;;77.30;2227.20;;;;;;5031943;28;20033;-61
2021/11/30 00:40:39;;;;;;;29.27;15.88;;;77.50;2227.20;;;;;;5032012;28;20021;-61
2021/11/30 00:43:06;;;;;;;26.90;14.82;;;77.40;2227.20;;;;;;5035625;28;20033;-61
2021/11/30 00:45:52;;;;;;;22.92;12.70;;;77.40;2227.20;;;;;;5040932;28;20087;-59
2021/11/30 00:48:21;;;;;;;99.28;46.72;;;77.30;2227.20;;;;;;5041693;28;20498;-64
2021/11/30 00:50:49;;;;;;;59.63;28.85;;;77.30;2227.20;;;;;;5040284;28;20394;-59
2021/11/30 00:53:14;;;;;;;18.48;10.32;;;77.40;2227.20;;;;;;5040983;28;20017;-59
2021/11/30 00:55:40;;;;;;;26.05;15.75;;;77.40;2227.20;;;;;;5039814;28;20431;-59
2021/11/30 00:58:07;;;;;;;22.60;13.07;;;77.40;2227.20;;;;;;5036505;28;20026;-60
2021/11/30 01:00:35;;;;;;;21.77;11.63;;;77.30;2227.20;;;;;;5031137;28;20069;-59
2021/11/30 01:03:06;;;;;;;19.33;10.82;;;77.40;2227.20;;;;;;5031199;28;20037;-60
2021/11/30 01:05:33;;;;;;;18.90;12.45;;;77.30;2227.20;;;;;;5031574;28;20055;-59
2021/11/30 01:07:59;;;;;;;44.22;21.20;;;77.40;2227.20;;;;;;5031169;28;20029;-60
2021/11/30 01:10:25;;;;;;;20.52;11.57;;;77.30;2227.20;;;;;;5031144;28;20034;-62
2021/11/30 01:12:51;;;;;;;49.17;22.92;;;77.30;2227.20;;;;;;5031379;28;20026;-59
2021/11/30 01:15:19;;;;;;;101.97;41.78;;;77.40;2227.20;;;;;;5030957;28;20025;-60
2021/11/30 01:17:46;;;;;;;24.45;12.52;;;77.50;2227.20;;;;;;5031090;28;20025;-63
2021/11/30 01:20:12;;;;;;;20.73;13.13;;;77.50;2227.20;;;;;;5031115;28;20036;-59
2021/11/30 01:22:39;;;;;;;28.15;16.88;;;77.40;2227.20;;;;;;5031149;28;20078;-58
2021/11/30 01:25:08;;;;;;;19.90;12.73;;;77.50;2227.20;;;;;;5030872;28;20021;-57
2021/11/30 01:27:35;;;;;;;25.73;13.32;;;77.40;2227.20;;;;;;5030745;28;20025;-57
2021/11/30 01:30:01;;;;;;;19.52;11.48;;;77.50;2227.20;;;;;;5030730;28;20029;-58
2021/11/30 01:32:26;;;;;;;26.77;13.98;;;77.50;2227.20;;;;;;5030748;28;20040;-58
2021/11/30 01:34:52;;;;;;;16.60;9.65;;;77.70;2227.20;;;;;;5030766;28;20022;-58
2021/11/30 01:37:18;;;;;;;20.67;11.50;;;77.70;2227.20;;;;;;5031126;28;20033;-57
2021/11/30 01:39:46;;;;;;;19.17;10.55;;;77.70;2227.20;;;;;;5030637;28;20025;-58
2021/11/30 01:42:14;;;;;;;18.75;12.93;;;77.70;2227.20;;;;;;5030683;28;20083;-58
2021/11/30 01:47:41;;;;;;;24.83;12.90;;;102.40;2227.20;;;;;;5030717;28;20112;-57
2021/11/30 01:50:01;;;;;;;18.40;9.63;;;77.70;2227.20;;;;;;5030268;28;20036;-58
2021/11/30 01:52:28;;;;;;;22.65;11.65;;;77.70;2227.20;;;;;;5030421;28;20472;-59
2021/11/30 01:54:54;;;;;;;19.35;10.35;;;77.60;2227.20;;;;;;5030225;28;20037;-59
2021/11/30 01:57:23;;;;;;;22.38;10.18;;;77.60;2227.20;;;;;;5030621;28;20022;-59
2021/11/30 01:59:51;;;;;;;24.02;14.63;;;77.60;2227.20;;;;;;5030322;28;20037;-58
2021/11/30 02:02:20;;;;;;;19.52;11.63;;;77.60;2227.20;;;;;;5030386;28;20029;-59
2021/11/30 02:04:46;;;;;;;29.92;18.83;;;77.60;2227.20;;;;;;5030165;28;20042;-59
2021/11/30 02:07:14;;;;;;;18.15;9.80;;;77.50;2227.20;;;;;;5030147;28;20064;-59
2021/11/30 02:09:41;;;;;;;15.77;9.75;;;77.60;2227.20;;;;;;5030267;28;20040;-60
2021/11/30 02:12:08;;;;;;;17.52;10.52;;;77.60;2227.20;;;;;;5030052;28;20246;-59
2021/11/30 02:14:35;;;;;;;19.02;10.60;;;77.60;2227.20;;;;;;5030037;28;20075;-62
2021/11/30 02:17:02;;;;;;;13.43;9.75;;;77.40;2227.20;;;;;;5030241;28;20018;-59
2021/11/30 02:19:28;;;;;;;17.77;10.32;;;77.40;2227.20;;;;;;5030245;28;20458;-61
2021/11/30 02:21:54;;;;;;;20.60;12.90;;;77.30;2227.20;;;;;;5030133;28;20025;-59
2021/11/30 02:24:21;;;;;;;14.88;9.90;;;77.40;2227.20;;;;;;5030002;28;20123;-62
2021/11/30 02:26:46;;;;;;;15.48;9.48;;;77.40;2227.20;;;;;;5030003;28;20156;-59
2021/11/30 02:29:13;;;;;;;20.77;10.55;;;77.40;2227.20;;;;;;5029718;28;20495;-60
2021/11/30 02:31:47;;;;;;;18.20;10.63;;;77.40;2227.20;;;;;;5030111;28;20114;-61
2021/11/30 02:34:15;;;;;;;15.43;9.45;;;77.40;2227.20;;;;;;5029834;28;20105;-61
2021/11/30 02:39:10;;;;;;;15.52;9.57;;;77.40;2227.20;;;;;;5029894;28;20018;-59
2021/11/30 02:41:38;;;;;;;18.83;10.10;;;77.40;2227.20;;;;;;5029606;28;20108;-60
2021/11/30 02:44:05;;;;;;;17.35;12.90;;;77.40;2227.20;;;;;;5033203;28;20037;-60
2021/11/30 02:46:40;;;;;;;17.98;10.52;;;77.30;2227.20;;;;;;5034268;28;20022;-60
2021/11/30 02:49:13;;;;;;;16.48;9.52;;;77.30;2227.20;;;;;;5033780;28;20017;-59
2021/11/30 02:51:43;;;;;;;10.40;7.15;;;77.30;2227.20;;;;;;5033999;28;20030;-63
2021/11/30 02:54:12;;;;;;;11.80;8.43;;;77.30;2227.20;;;;;;5033715;28;20095;-59
2021/11/30 02:56:54;;;;;;;15.25;9.55;;;77.20;2227.20;;;;;;5033936;28;20030;-59
2021/11/30 02:59:24;;;;;;;17.95;9.77;;;77.30;2227.20;;;;;;5033753;28;20029;-65
2021/11/30 03:01:54;;;;;;;14.82;10.07;;;77.30;2227.20;;;;;;5033920;28;20087;-61
2021/11/30 03:04:20;;;;;;;15.68;9.30;;;77.10;2227.20;;;;;;5033841;28;20125;-63
2021/11/30 03:06:46;;;;;;;18.48;10.43;;;77.00;2227.20;;;;;;5033403;28;20041;-59
2021/11/30 03:09:13;;;;;;;17.52;9.05;;;77.00;2227.20;;;;;;5033398;28;20056;-60
2021/11/30 03:11:39;;;;;;;14.27;9.05;;;76.90;2227.20;;;;;;5033669;28;20032;-59
2021/11/30 03:14:05;;;;;;;13.82;10.35;;;77.10;2227.20;;;;;;5033267;28;20036;-61
2021/11/30 03:16:32;;;;;;;15.93;9.98;;;76.90;2227.20;;;;;;5033537;28;20018;-59
2021/11/30 03:18:58;;;;;;;17.10;9.65;;;76.90;2227.20;;;;;;5033513;28;20036;-59
2021/11/30 03:21:24;;;;;;;16.42;10.23;;;77.00;2227.20;;;;;;5033148;28;20013;-59
2021/11/30 03:23:49;;;;;;;16.80;9.27;;;76.90;2227.20;;;;;;5033332;28;20048;-58
2021/11/30 03:26:15;;;;;;;15.43;9.43;;;76.80;2227.20;;;;;;5033011;28;20021;-58
2021/11/30 03:28:43;;;;;;;13.85;8.68;;;52.10;2227.20;;;;;;5033206;28;20100;-59
2021/11/30 03:31:21;;;;;;;18.58;9.68;;;76.90;2227.20;;;;;;5033160;28;20491;-60
2021/11/30 03:33:59;;;;;;;16.13;10.00;;;76.90;2227.20;;;;;;5032974;28;20044;-59
2021/11/30 03:36:26;;;;;;;16.98;9.82;;;76.90;2227.20;;;;;;5032973;28;20467;-60
2021/11/30 03:38:52;;;;;;;17.42;11.00;;;76.90;2227.20;;;;;;5032848;28;20029;-59
2021/11/30 03:41:18;;;;;;;18.92;10.85;;;76.90;2227.20;;;;;;5033185;28;20083;-59
2021/11/30 03:43:44;;;;;;;16.05;9.80;;;76.90;2227.20;;;;;;5032780;28;20038;-62
2021/11/30 03:46:10;;;;;;;14.27;8.98;;;77.00;2227.20;;;;;;5032850;28;20430;-59
2021/11/30 03:48:36;;;;;;;17.20;10.23;;;77.00;2227.20;;;;;;5032600;28;20030;-62
2021/11/30 03:51:03;;;;;;;15.93;9.38;;;77.10;2227.20;;;;;;5032752;28;20539;-60
2021/11/30 03:53:28;;;;;;;15.45;8.35;;;77.10;2227.20;;;;;;5032943;28;20116;-61
2021/11/30 03:55:54;;;;;;;16.38;9.00;;;77.20;2227.20;;;;;;5032576;28;20104;-64
2021/11/30 03:58:23;;;;;;;15.18;10.02;;;77.10;2227.20;;;;;;5031911;28;20480;-61
2021/11/30 04:00:49;;;;;;;19.35;10.68;;;77.00;2227.20;;;;;;5032490;28;20052;-59
2021/11/30 04:03:15;;;;;;;17.83;9.80;;;77.00;2227.20;;;;;;5032434;28;20049;-58
2021/11/30 04:05:40;;;;;;;18.50;10.90;;;77.00;2227.20;;;;;;5032539;28;20030;-62
2021/11/30 04:08:06;;;;;;;19.30;10.52;;;77.00;2227.20;;;;;;5032170;28;20025;-62
2021/11/30 04:10:32;;;;;;;17.70;10.95;;;77.10;2227.20;;;;;;5032647;28;20045;-64
2021/11/30 04:12:59;;;;;;;20.10;10.13;;;77.10;2227.20;;;;;;5032357;28;20029;-62
2021/11/30 04:15:24;;;;;;;16.23;10.20;;;77.10;2227.20;;;;;;5032313;28;20383;-59
2021/11/30 04:17:50;;;;;;;67.53;41.83;;;77.00;2227.20;;;;;;5032591;28;20026;-60
2021/11/30 04:20:16;;;;;;;19.15;10.70;;;77.10;2227.20;;;;;;5031892;28;20033;-61
2021/11/30 04:22:43;;;;;;;17.77;11.73;;;77.10;2227.20;;;;;;5032319;28;20029;-58
2021/11/30 04:25:10;;;;;;;27.65;13.85;;;77.10;2227.20;;;;;;5032449;28;20060;-59
2021/11/30 04:27:36;;;;;;;18.33;10.77;;;77.10;2227.20;;;;;;5032095;28;20352;-63
2021/11/30 04:30:04;;;;;;;14.65;9.70;;;77.10;2227.20;;;;;;5031940;28;20029;-60
2021/11/30 04:32:30;;;;;;;19.38;12.27;;;77.00;2227.20;;;;;;5032096;28;20022;-58
2021/11/30 04:34:55;;;;;;;19.90;11.43;;;76.90;2227.20;;;;;;5031948;28;20116;-59
2021/11/30 04:37:21;;;;;;;14.85;10.20;;;76.80;2227.20;;;;;;5032123;28;20026;-64
2021/11/30 04:39:47;;;;;;;15.40;11.27;;;76.80;2227.20;;;;;;5031764;28;20040;-61
2021/11/30 04:42:13;;;;;;;17.35;11.35;;;76.80;2227.20;;;;;;5031960;28;20029;-61
2021/11/30 04:44:45;;;;;;;17.23;10.18;;;76.80;2227.20;;;;;;5031869;28;20072;-60
2021/11/30 04:47:11;;;;;;;17.30;11.15;;;76.80;2227.20;;;;;;5031877;28;20022;-63
2021/11/30 04:49:52;;;;;;;23.77;14.60;;;76.80;2227.20;;;;;;5031655;28;20391;-60
2021/11/30 04:52:17;;;;;;;14.05;8.73;;;76.80;2227.20;;;;;;5032051;28;20033;-62
2021/11/30 04:54:43;;;;;;;18.80;10.30;;;76.80;2227.20;;;;;;5031419;28;20036;-60
2021/11/30 04:57:10;;;;;;;16.95;10.45;;;76.90;2227.20;;;;;;5031703;28;20107;-60
2021/11/30 04:59:36;;;;;;;12.57;8.95;;;76.90;2227.20;;;;;;5030292;28;20403;-62
2021/11/30 05:02:02;;;;;;;18.75;10.88;;;76.90;2227.20;;;;;;5031447;28;20037;-60
2021/11/30 05:04:29;;;;;;;17.10;9.70;;;76.90;2227.20;;;;;;5031461;28;20045;-62
2021/11/30 05:06:55;;;;;;;20.58;9.65;;;76.90;2227.20;;;;;;5030903;28;20469;-60
2021/11/30 05:09:20;;;;;;;20.08;10.93;;;76.90;2227.20;;;;;;5031630;28;20031;-59
2021/11/30 05:11:46;;;;;;;14.63;9.77;;;76.90;2227.20;;;;;;5031196;28;20029;-60
2021/11/30 05:14:12;;;;;;;18.50;10.13;;;77.00;2227.20;;;;;;5031286;28;20120;-61
2021/11/30 05:16:39;;;;;;;18.95;11.10;;;77.00;2227.20;;;;;;5031359;28;20029;-61
2021/11/30 05:19:05;;;;;;;21.08;11.68;;;77.10;2227.20;;;;;;5030872;28;20117;-60
2021/11/30 05:21:32;;;;;;;15.90;10.38;;;77.10;2227.20;;;;;;5031247;28;20048;-61
2021/11/30 05:24:04;;;;;;;15.52;11.27;;;102.40;2227.20;;;;;;5031029;28;20041;-61
2021/11/30 05:26:30;;;;;;;18.25;14.52;;;77.20;2227.20;;;;;;5030990;28;20097;-61
2021/11/30 05:28:56;;;;;;;18.73;12.10;;;77.20;2227.20;;;;;;5030937;28;20034;-60
2021/11/30 05:31:22;;;;;;;18.33;9.52;;;77.20;2227.20;;;;;;5031103;28;20024;-61
2021/11/30 05:33:48;;;;;;;14.65;10.77;;;77.20;2227.20;;;;;;5031073;28;20068;-61
2021/11/30 05:36:16;;;;;;;15.25;9.05;;;77.30;2227.20;;;;;;5030775;28;20534;-61
2021/11/30 05:38:42;;;;;;;18.05;10.00;;;77.40;2227.20;;;;;;5030851;28;20520;-62
2021/11/30 05:41:08;;;;;;;17.90;9.98;;;77.30;2227.20;;;;;;5030965;28;20032;-61
2021/11/30 05:43:34;;;;;;;16.15;9.85;;;77.20;2227.20;;;;;;5030352;28;20045;-60
2021/11/30 05:45:59;;;;;;;15.70;9.48;;;77.20;2227.20;;;;;;5030766;28;20147;-61
2021/11/30 05:48:25;;;;;;;17.67;9.32;;;77.20;2227.20;;;;;;5030504;28;20035;-60
2021/11/30 05:50:52;;;;;;;15.18;9.63;;;77.30;2227.20;;;;;;5030758;28;20022;-61
2021/11/30 05:53:17;;;;;;;13.10;8.98;;;77.20;2227.20;;;;;;5030852;28;20029;-61
2021/11/30 05:55:54;;;;;;;14.25;10.02;;;77.20;2227.20;;;;;;5030554;28;20022;-62
2021/11/30 05:58:20;;;;;;;15.50;9.38;;;77.20;2227.20;;;;;;5030824;28;20029;-61
2021/11/30 06:00:48;;;;;;;11.88;8.60;;;77.10;2227.20;;;;;;5030120;28;20072;-60
2021/11/30 06:06:12;;;;;;;13.07;8.55;;;77.10;2227.20;;;;;;5048236;28;20352;-61
2021/11/30 06:08:38;;;;;;;16.02;9.00;;;77.10;2227.20;;;;;;5048020;28;20159;-61
2021/11/30 06:11:03;;;;;;;15.48;8.48;;;77.10;2227.20;;;;;;5047596;28;20478;-63
2021/11/30 06:13:29;;;;;;;14.98;9.25;;;77.10;2227.20;;;;;;5047848;28;20024;-64
2021/11/30 06:15:55;;;;;;;13.80;8.35;;;77.10;2227.20;;;;;;5047564;28;20048;-61
2021/11/30 06:18:21;;;;;;;14.60;9.43;;;77.10;2227.20;;;;;;5047198;28;20021;-61
2021/11/30 06:20:48;;;;;;;17.58;10.13;;;77.00;2227.20;;;;;;5047689;28;20467;-63
2021/11/30 06:23:14;;;;;;;17.23;9.05;;;77.10;2227.20;;;;;;5047581;28;20032;-61
2021/11/30 06:25:40;;;;;;;22.83;12.27;;;77.10;2227.20;;;;;;5047899;28;20509;-61
2021/11/30 06:28:06;;;;;;;14.57;10.13;;;77.10;2227.20;;;;;;5047602;28;20029;-66
2021/11/30 06:30:32;;;;;;;15.68;8.82;;;77.30;2227.20;;;;;;5047614;28;20379;-63
2021/11/30 06:32:57;;;;;;;41.35;13.48;;;77.40;2227.20;;;;;;5047696;28;20029;-60
2021/11/30 06:35:23;;;;;;;12.88;8.60;;;77.40;2227.20;;;;;;5047561;28;20033;-62
2021/11/30 06:37:49;;;;;;;14.23;8.88;;;77.40;2227.20;;;;;;5047892;28;20120;-61
2021/11/30 06:40:15;;;;;;;22.50;13.35;;;77.60;2227.20;;;;;;5047526;28;20028;-60
2021/11/30 06:42:40;;;;;;;19.65;11.93;;;77.50;2227.20;;;;;;5031963;28;20030;-62
2021/11/30 06:45:07;;;;;;;16.42;11.30;;;77.50;2227.20;;;;;;5028329;28;20041;-62
2021/11/30 06:47:33;;;;;;;26.45;16.65;;;77.50;2227.20;;;;;;5029735;28;20030;-61
2021/11/30 06:49:59;;;;;;;18.42;9.32;;;77.70;2227.20;;;;;;5030140;28;20041;-62
2021/11/30 06:52:25;;;;;;;17.77;11.00;;;77.70;2227.20;;;;;;5029657;28;20025;-61
2021/11/30 06:54:54;;;;;;;17.63;12.05;;;77.70;2227.20;;;;;;5030002;28;20056;-63
2021/11/30 06:57:20;;;;;;;14.48;9.93;;;77.70;2227.20;;;;;;5029896;28;20037;-62
2021/11/30 06:59:47;;;;;;;14.65;10.07;;;102.40;2227.20;;;;;;5029399;28;20044;-63
2021/11/30 07:02:13;;;;;;;20.55;10.13;;;77.70;2227.20;;;;;;5032697;28;20060;-63
2021/11/30 07:04:48;;;;;;;44.28;29.00;;;77.70;2227.20;;;;;;5038769;28;20483;-61
2021/11/30 07:07:46;;;;;;;18.42;11.40;;;77.70;2227.20;;;;;;5037865;28;20017;-62
2021/11/30 07:15:09;;;;;;;16.52;10.20;;;77.60;2227.20;;;;;;5039256;28;20029;-62
2021/11/30 07:17:35;;;;;;;22.38;14.85;;;77.50;2227.20;;;;;;5038278;28;20017;-60
2021/11/30 07:20:01;;;;;;;14.75;10.07;;;77.60;2227.20;;;;;;5037410;28;20031;-60
2021/11/30 07:22:27;;;;;;;17.50;11.95;;;77.60;2227.20;;;;;;5037114;28;20029;-60
2021/11/30 07:24:53;;;;;;;18.60;12.60;;;77.60;2227.20;;;;;;5035312;28;20049;-60
2021/11/30 07:27:18;;;;;;;13.05;8.82;;;77.70;2227.20;;;;;;5029423;28;20025;-61
2021/11/30 07:29:44;;;;;;;19.30;12.27;;;102.50;2227.20;;;;;;5032062;28;20159;-61
2021/11/30 07:32:10;;;;;;;13.10;8.00;;;102.60;2227.20;;;;;;5033191;28;20486;-61
2021/11/30 07:34:37;;;;;;;13.27;8.18;;;102.50;2227.20;;;;;;5032977;28;20543;-61
2021/11/30 07:37:03;;;;;;;18.73;10.50;;;102.60;2227.20;;;;;;5033018;28;20075;-60
2021/11/30 07:39:29;;;;;;;12.20;7.90;;;102.50;2227.20;;;;;;5033063;28;20025;-60
2021/11/30 07:41:55;;;;;;;19.52;12.65;;;102.60;2227.20;;;;;;5032911;28;20079;-61
2021/11/30 07:44:21;;;;;;;12.27;7.32;;;102.60;2227.20;;;;;;5033284;28;20431;-61
2021/11/30 07:46:47;;;;;;;13.30;7.38;;;102.60;2227.20;;;;;;5032945;28;20028;-60
2021/11/30 07:49:13;;;;;;;17.40;11.27;;;102.60;2227.20;;;;;;5032670;28;20029;-62
2021/11/30 07:51:39;;;;;;;18.88;11.45;;;102.70;2227.20;;;;;;5032797;28;20083;-61
2021/11/30 07:54:06;;;;;;;24.20;14.90;;;102.60;2227.20;;;;;;5032654;28;20059;-61
2021/11/30 07:56:33;;;;;;;70.88;46.20;;;102.70;2227.20;;;;;;5032795;28;20029;-60
2021/11/30 07:59:00;;;;;;;43.05;23.30;;;102.80;2227.20;;;;;;5032719;28;20029;-60
2021/11/30 08:01:26;;;;;;;37.08;22.58;;;103.20;2227.20;;;;;;5032469;28;20064;-60
2021/11/30 08:03:52;;;;;;;12.93;7.80;;;128.50;2252.80;;;;;;5032832;28;20041;-60
2021/11/30 08:06:17;;;;;;;33.53;29.52;;;154.00;2252.80;;;;;;5032644;28;20064;-62
2021/11/30 08:08:44;;;;;;;12.93;8.98;;;179.70;2252.80;;;;;;5032380;28;20065;-61
2021/11/30 08:11:10;;;;;;;10.13;6.93;;;205.30;2252.80;;;;;;5032590;28;20119;-61
2021/11/30 08:13:36;;;;;;;11.98;9.32;;;230.90;2252.80;;;;;;5032365;28;20037;-62
2021/11/30 08:16:02;;;;;;;13.80;9.90;;;230.40;2252.80;;;;;;5032362;28;20034;-61
2021/11/30 08:18:28;;;;;;;13.68;9.02;;;180.00;2252.80;;;;;;5032639;28;20030;-62
2021/11/30 08:20:55;;;;;;;27.38;23.88;;;230.50;2252.80;;;;;;5032371;28;20379;-62
2021/11/30 08:23:21;;;;;;;19.30;17.25;;;204.90;2252.80;;;;;;5032337;28;20025;-62
2021/11/30 08:25:48;;;;;;;26.58;23.48;;;179.80;2252.80;;;;;;5032164;28;20029;-62
2021/11/30 08:28:14;;;;;;;12.18;8.95;;;154.50;2252.80;;;;;;5031819;28;20135;-62
2021/11/30 08:30:40;;;;;;;12.30;9.75;;;154.50;2252.80;;;;;;5030899;28;20069;-62
2021/11/30 08:33:06;;;;;;;8.98;6.68;;;179.60;2252.80;;;;;;5031866;28;20037;-62
2021/11/30 08:35:34;;;;;;;36.15;32.85;;;205.70;2252.80;;;;;;5031930;28;20116;-62
2021/11/30 08:37:59;;;;;;;12.20;9.93;;;256.10;2252.80;;;;;;5031956;28;20022;-62
2021/11/30 08:40:25;;;;;;;13.60;12.20;;;282.20;2252.80;;;;;;5030570;28;20037;-62
2021/11/30 08:42:51;;;;;;;16.50;14.88;;;307.30;2150.40;;;;;;5031956;28;20108;-63
2021/11/30 08:45:17;;;;;;;9.20;7.78;;;307.70;2099.20;;;;;;5031701;28;20483;-62
2021/11/30 08:47:42;;;;;;;17.90;10.27;;;333.20;1996.80;;;;;;5031728;28;20049;-63
2021/11/30 08:50:16;;;;;;;12.45;10.70;;;332.90;1996.80;;;;;;5031792;28;20423;-62
2021/11/30 08:52:42;;;;;;;9.52;7.20;;;333.40;1971.20;;;;;;5031740;28;20022;-61
2021/11/30 08:55:09;;;;;;;9.98;8.25;;;358.50;1894.40;;;;;;5031726;28;20090;-62
2021/11/30 08:57:35;;;;;;;9.50;8.50;;;359.00;1843.20;;;;;;5031497;28;20115;-63
2021/11/30 09:00:03;;;;;;;8.48;7.53;;;358.70;1843.20;;;;;;5029841;28;20112;-62
2021/11/30 09:02:29;;;;;;;9.38;6.80;;;358.40;1843.20;;;;;;5029883;28;20026;-62
2021/11/30 09:04:55;;;;;;;9.93;8.65;;;359.00;1766.40;;;;;;5029576;28;20044;-62
2021/11/30 09:07:21;;;;;;;9.85;8.88;;;359.20;1766.40;;;;;;5030083;28;20599;-62
2021/11/30 09:09:48;;;;;;;13.18;8.90;;;384.50;1715.20;;;;;;5029626;28;20041;-63
2021/11/30 09:12:17;;;;;;;7.35;6.30;;;359.30;1766.40;;;;;;5029530;28;20025;-63
2021/11/30 09:14:45;;;;;;;9.80;6.18;;;333.20;1868.80;;;;;;5029301;28;20034;-62
2021/11/30 09:17:12;;;;;;;8.90;6.82;;;307.40;1945.60;;;;;;5029680;28;20109;-62
2021/11/30 09:19:38;;;;;;;13.90;12.52;;;282.50;1971.20;;;;;;5029855;28;20398;-62
2021/11/30 09:22:04;;;;;;;10.20;7.15;;;281.60;2048.00;;;;;;5029450;28;20109;-62
2021/11/30 09:24:30;;;;;;;7.45;5.72;;;256.10;2099.20;;;;;;5031496;28;20042;-62
2021/11/30 09:26:57;;;;;;;9.27;6.80;;;231.30;2124.80;;;;;;5030956;28;20026;-61
2021/11/30 09:29:22;;;;;;;14.07;8.25;;;230.60;2176.00;;;;;;5031436;28;20401;-62
2021/11/30 09:31:48;;;;;;;8.18;6.35;;;230.50;2252.80;;;;;;5031422;28;20033;-61
2021/11/30 09:34:14;;;;;;;38.55;25.98;;;205.40;2252.80;;;;;;5030803;28;20476;-62
2021/11/30 09:36:43;;;;;;;12.73;7.90;;;205.40;2252.80;;;;;;5030818;28;20459;-61
2021/11/30 09:39:09;;;;;;;10.40;7.13;;;205.20;2252.80;;;;;;5030793;28;20074;-61
2021/11/30 09:41:36;;;;;;;11.98;6.80;;;204.90;2252.80;;;;;;5030438;28;20108;-61
2021/11/30 09:44:02;;;;;;;8.55;5.13;;;204.90;2252.80;;;;;;5030662;28;20484;-61
2021/11/30 09:46:28;;;;;;;36.65;18.13;;;180.10;2252.80;;;;;;5030877;28;20029;-61
2021/11/30 09:48:54;;;;;;;69.90;38.22;;;204.90;2252.80;;;;;;5030523;28;20048;-61
2021/11/30 09:51:20;;;;;;;20.05;12.35;;;180.00;2252.80;;;;;;5030753;28;20022;-61
2021/11/30 09:53:46;;;;;;;10.93;5.57;;;180.00;2252.80;;;;;;5030453;28;20053;-61
2021/11/30 09:56:12;;;;;;;16.88;11.75;;;179.80;2252.80;;;;;;5030370;28;20021;-61
2021/11/30 09:58:39;;;;;;;11.27;6.68;;;179.40;2252.80;;;;;;5030544;28;20487;-62
2021/11/30 10:01:10;;;;;;;11.13;8.50;;;179.40;2252.80;;;;;;5029916;28;20128;-61
2021/11/30 10:03:36;;;;;;;12.80;9.80;;;179.40;2252.80;;;;;;5030350;28;20115;-61
2021/11/30 10:06:02;;;;;;;12.35;8.73;;;179.30;2252.80;;;;;;5030166;28;20383;-62
2021/11/30 10:08:30;;;;;;;11.30;10.13;;;179.30;2252.80;;;;;;5030274;28;20033;-61
2021/11/30 10:10:57;;;;;;;12.48;10.43;;;179.40;2252.80;;;;;;5030166;28;20044;-61
2021/11/30 10:13:23;;;;;;;16.50;14.23;;;179.40;2252.80;;;;;;5029999;28;20021;-62
2021/11/30 10:15:57;;;;;;;9.90;5.85;;;154.50;2252.80;;;;;;5030522;28;20021;-61
2021/11/30 10:18:24;;;;;;;7.57;5.10;;;179.20;2252.80;;;;;;5029938;28;20025;-62
2021/11/30 10:20:56;;;;;;;8.23;5.55;;;179.50;2252.80;;;;;;5030312;28;20022;-61
2021/11/30 10:23:24;;;;;;;8.13;5.90;;;179.20;2252.80;;;;;;5032377;28;20067;-61
2021/11/30 10:25:51;;;;;;;11.75;8.85;;;179.20;2252.80;;;;;;5029157;28;20068;-61
2021/11/30 10:28:23;;;;;;;7.50;4.88;;;179.30;2252.80;;;;;;5030218;28;20436;-61
2021/11/30 10:30:51;;;;;;;9.98;7.00;;;179.50;2252.80;;;;;;5030149;28;20036;-61
2021/11/30 10:33:24;;;;;;;7.50;6.05;;;179.40;2252.80;;;;;;5030087;28;20491;-61
2021/11/30 10:35:58;;;;;;;10.88;5.60;;;179.40;2252.80;;;;;;5030179;28;20030;-61
2021/11/30 10:38:39;;;;;;;9.32;6.97;;;179.20;2252.80;;;;;;5028758;28;20038;-61
2021/11/30 10:41:20;;;;;;;13.15;9.63;;;179.40;2252.80;;;;;;5029917;28;20021;-61
2021/11/30 10:43:58;;;;;;;11.85;7.85;;;179.50;2252.80;;;;;;5029623;28;20369;-61
2021/11/30 10:46:29;;;;;;;43.78;35.40;;;179.50;2252.80;;;;;;5029735;28;20040;-62
2021/11/30 10:48:57;;;;;;;17.40;11.35;;;179.70;2252.80;;;;;;5029586;28;20108;-61
2021/11/30 10:51:24;;;;;;;11.07;7.65;;;179.70;2252.80;;;;;;5029953;28;20068;-62
2021/11/30 10:53:54;;;;;;;51.30;34.70;;;179.60;2252.80;;;;;;5029857;28;20030;-61
2021/11/30 10:56:20;;;;;;;8.98;7.85;;;179.70;2252.80;;;;;;5029995;28;20033;-61
2021/11/30 10:58:47;;;;;;;39.33;32.22;;;179.70;2252.80;;;;;;5029623;28;20031;-61
2021/11/30 11:01:16;;;;;;;41.80;31.45;;;179.90;2252.80;;;;;;5029312;28;20049;-62
2021/11/30 11:03:42;;;;;;;9.50;6.22;;;179.90;2252.80;;;;;;5030627;28;20392;-61
2021/11/30 11:08:55;;;;;;;13.38;9.07;;;179.60;2252.80;;;;;;5033546;28;20029;-62
2021/11/30 11:11:27;;;;;;;16.85;11.77;;;179.50;2252.80;;;;;;5033712;28;20033;-61
2021/11/30 11:13:54;;;;;;;11.88;7.85;;;179.70;2252.80;;;;;;5033358;28;20029;-61
2021/11/30 11:16:31;;;;;;;9.77;7.13;;;179.50;2252.80;;;;;;5033658;28;20025;-60
2021/11/30 11:19:06;;;;;;;13.43;8.80;;;179.50;2252.80;;;;;;5033646;28;20021;-61
2021/11/30 11:21:32;;;;;;;9.60;6.38;;;179.60;2252.80;;;;;;5033635;28;20877;-60
2021/11/30 11:24:07;;;;;;;13.35;9.05;;;179.70;2252.80;;;;;;5033469;28;20396;-61
2021/11/30 11:26:40;;;;;;;16.08;10.10;;;179.70;2252.80;;;;;;5033075;28;20036;-61
2021/11/30 11:29:12;;;;;;;31.10;25.67;;;179.80;2252.80;;;;;;5032905;28;20026;-62
2021/11/30 11:31:40;;;;;;;53.10;39.60;;;179.80;2252.80;;;;;;5033247;28;20040;-61
2021/11/30 11:34:08;;;;;;;27.83;19.13;;;180.00;2252.80;;;;;;5033009;28;20091;-61
2021/11/30 11:36:34;;;;;;;11.82;7.88;;;204.80;2252.80;;;;;;5032933;28;20025;-60
2021/11/30 11:39:01;;;;;;;14.98;10.90;;;180.10;2252.80;;;;;;5040928;28;20029;-60
2021/11/30 11:41:29;;;;;;;22.45;15.30;;;180.10;2252.80;;;;;;5035341;28;20030;-60
2021/11/30 11:43:55;;;;;;;21.80;14.45;;;179.80;2252.80;;;;;;5032757;28;20044;-62
2021/11/30 11:46:22;;;;;;;20.25;14.93;;;180.10;2252.80;;;;;;5033318;28;20033;-60
2021/11/30 11:48:59;;;;;;;20.33;14.65;;;204.80;2252.80;;;;;;5033002;28;20116;-60
2021/11/30 11:51:34;;;;;;;38.00;25.45;;;180.10;2252.80;;;;;;5032809;28;20036;-61
2021/11/30 11:54:00;;;;;;;17.30;15.00;;;204.90;2252.80;;;;;;5032832;28;20025;-61
2021/11/30 11:56:29;;;;;;;20.08;10.65;;;204.80;2252.80;;;;;;5032673;28;20026;-61
2021/11/30 11:59:08;;;;;;;20.17;13.63;;;204.80;2252.80;;;;;;5032724;28;20068;-61
2021/11/30 12:01:36;;;;;;;10.25;7.72;;;204.80;2252.80;;;;;;5032367;28;20054;-61
2021/11/30 12:04:04;;;;;;;11.25;7.55;;;180.00;2252.80;;;;;;5032437;28;20030;-61
2021/11/30 12:06:34;;;;;;;32.22;20.88;;;179.80;2252.80;;;;;;5032583;28;20028;-61
2021/11/30 12:09:16;;;;;;;11.32;7.53;;;180.00;2252.80;;;;;;5032626;28;20025;-61
2021/11/30 12:11:47;;;;;;;32.72;21.35;;;180.10;2252.80;;;;;;5029777;28;20032;-62
2021/11/30 12:14:21;;;;;;;31.65;19.10;;;180.00;2252.80;;;;;;5030428;28;20021;-62
2021/11/30 12:17:06;;;;;;;30.08;20.08;;;179.40;2252.80;;;;;;5030119;28;20612;-61
2021/11/30 12:19:40;;;;;;;12.85;9.52;;;179.40;2252.80;;;;;;5030643;28;20081;-62
2021/11/30 12:22:07;;;;;;;32.60;21.27;;;179.30;2252.80;;;;;;5030466;28;20021;-62
2021/11/30 12:24:44;;;;;;;11.38;7.45;;;179.40;2252.80;;;;;;5029925;28;20049;-62
2021/11/30 12:27:22;;;;;;;7.80;5.28;;;179.40;2252.80;;;;;;5030669;28;20032;-61